Time;durP1;ratioP1;P1;durP2;ratioP2;P2;SDS_P1;SDS_P2;PMS_P1;PMS_P2;Temp;Humidity;BMP_temperature;BMP_pressure;BME280_temperature;BME280_humidity;BME280_pressure;Samples;Min_cycle;Max_cycle;Signal;HPM_P1;HPM_P2
2022/12/25 00:02:04;;;;;;;87.68;21.02;;;6.10;96.70;;;;;;5037611;28;20051;-81
2022/12/25 00:04:29;;;;;;;83.53;19.95;;;6.00;96.60;;;;;;5052137;28;20076;-82
2022/12/25 00:06:55;;;;;;;88.93;20.27;;;6.00;96.60;;;;;;5059914;28;20089;-82
2022/12/25 00:09:20;;;;;;;82.07;20.45;;;5.90;96.40;;;;;;5055697;28;20067;-84
2022/12/25 00:11:46;;;;;;;92.97;21.15;;;6.00;96.50;;;;;;5054335;28;20045;-81
2022/12/25 00:14:12;;;;;;;80.68;20.98;;;6.00;96.70;;;;;;5057310;28;20051;-82
2022/12/25 00:16:37;;;;;;;90.85;21.65;;;5.90;96.30;;;;;;5055365;28;20060;-81
2022/12/25 00:19:03;;;;;;;80.10;20.13;;;6.00;96.40;;;;;;5053080;28;20110;-81
2022/12/25 00:21:28;;;;;;;83.70;20.67;;;5.90;96.40;;;;;;5057314;28;20075;-82
2022/12/25 00:23:56;;;;;;;82.88;20.65;;;5.90;96.30;;;;;;5053643;28;20051;-82
2022/12/25 00:26:22;;;;;;;89.38;20.13;;;5.90;96.30;;;;;;5059104;28;20048;-82
2022/12/25 00:28:55;;;;;;;82.65;21.15;;;5.90;96.30;;;;;;5054811;28;20041;-82
2022/12/25 00:31:22;;;;;;;73.75;19.95;;;5.90;96.30;;;;;;5057063;28;20052;-81
2022/12/25 00:33:48;;;;;;;75.95;20.70;;;5.90;96.30;;;;;;5057639;28;20032;-81
2022/12/25 00:36:17;;;;;;;85.13;20.90;;;5.90;96.40;;;;;;5057116;28;20040;-81
2022/12/25 00:38:44;;;;;;;75.15;20.42;;;6.00;96.50;;;;;;5054473;28;20808;-82
2022/12/25 00:44:03;;;;;;;93.63;20.10;;;6.00;96.50;;;;;;5057708;28;20041;-81
2022/12/25 00:46:29;;;;;;;92.13;20.20;;;6.10;96.70;;;;;;5054523;28;20037;-81
2022/12/25 00:48:58;;;;;;;81.03;20.85;;;6.10;96.70;;;;;;5053530;28;20057;-81
2022/12/25 00:51:24;;;;;;;82.35;20.73;;;6.00;96.60;;;;;;5055721;28;20033;-81
2022/12/25 00:53:50;;;;;;;80.55;19.75;;;6.00;96.50;;;;;;5053480;28;20055;-81
2022/12/25 00:56:15;;;;;;;73.70;19.23;;;6.10;96.70;;;;;;5056112;28;20163;-81
2022/12/25 00:58:41;;;;;;;77.63;20.40;;;6.10;96.60;;;;;;5054725;28;20056;-82
2022/12/25 01:01:10;;;;;;;77.00;18.17;;;6.10;96.60;;;;;;5054629;28;20739;-81
2022/12/25 01:03:35;;;;;;;;;;;6.10;96.60;;;;;;5054103;28;20048;-81
2022/12/25 01:06:04;;;;;;;81.90;18.67;;;6.10;96.80;;;;;;5055014;28;19925;-83
2022/12/25 01:08:33;;;;;;;96.22;20.48;;;6.10;96.70;;;;;;5034682;28;20047;-81
2022/12/25 01:11:04;;;;;;;89.38;19.77;;;6.10;96.60;;;;;;5052996;28;20502;-81
2022/12/25 01:13:33;;;;;;;84.38;20.45;;;6.10;96.70;;;;;;5048752;28;21060;-83
2022/12/25 01:16:05;;;;;;;90.95;21.58;;;6.10;96.60;;;;;;5056487;28;20087;-81
2022/12/25 01:18:30;;;;;;;88.00;21.13;;;6.10;96.60;;;;;;5055604;28;20087;-81
2022/12/25 01:20:56;;;;;;;88.72;21.02;;;6.10;96.50;;;;;;5052150;28;20772;-81
2022/12/25 01:23:21;;;;;;;96.60;20.42;;;6.10;96.60;;;;;;5037692;28;20150;-82
2022/12/25 01:25:47;;;;;;;88.32;21.48;;;6.10;96.70;;;;;;5033514;28;20045;-81
2022/12/25 01:28:12;;;;;;;95.22;21.42;;;6.10;96.70;;;;;;5050801;28;20082;-81
2022/12/25 01:30:38;;;;;;;87.22;22.00;;;6.20;96.90;;;;;;5035560;28;20464;-81
2022/12/25 01:33:04;;;;;;;85.10;21.13;;;6.20;96.80;;;;;;5050723;28;20049;-81
2022/12/25 01:35:29;;;;;;;90.40;21.20;;;6.20;96.80;;;;;;5056332;28;20594;-82
2022/12/25 01:37:55;;;;;;;99.13;22.88;;;6.20;96.80;;;;;;5037212;28;20087;-82
2022/12/25 01:40:21;;;;;;;106.70;24.00;;;6.30;96.80;;;;;;5049718;28;20052;-81
2022/12/25 01:42:46;;;;;;;98.30;23.92;;;6.30;96.80;;;;;;5054476;28;20053;-80
2022/12/25 01:45:34;;;;;;;103.07;23.50;;;6.30;96.90;;;;;;5049742;28;20041;-80
2022/12/25 01:48:08;;;;;;;108.95;25.25;;;6.40;96.90;;;;;;5052995;28;20051;-81
2022/12/25 01:50:37;;;;;;;95.65;22.95;;;6.50;97.00;;;;;;5026302;28;20048;-82
2022/12/25 01:53:04;;;;;;;103.07;23.42;;;6.50;97.00;;;;;;5055402;28;20728;-81
2022/12/25 01:55:31;;;;;;;105.68;23.52;;;6.50;97.00;;;;;;5053408;28;20072;-81
2022/12/25 01:57:56;;;;;;;76.55;23.90;;;6.60;97.00;;;;;;5049784;28;20048;-83
2022/12/25 02:00:22;;;;;;;86.65;23.08;;;6.60;96.90;;;;;;5050191;28;20032;-84
2022/12/25 02:02:48;;;;;;;107.65;23.83;;;6.60;96.90;;;;;;5051303;28;20036;-85
2022/12/25 02:05:20;;;;;;;74.28;21.52;;;6.60;96.90;;;;;;5053634;28;20482;-86
2022/12/25 02:07:47;;;;;;;89.80;21.83;;;6.60;96.90;;;;;;5049372;28;20044;-84
2022/12/25 02:10:13;;;;;;;80.38;21.52;;;6.60;96.90;;;;;;5051206;28;20127;-84
2022/12/25 02:12:40;;;;;;;81.35;21.38;;;6.60;96.80;;;;;;5048930;28;20036;-83
2022/12/25 02:15:12;;;;;;;68.03;20.65;;;6.70;96.90;;;;;;5053566;28;20048;-85
2022/12/25 02:17:59;;;;;;;75.05;20.95;;;6.70;96.80;;;;;;5053497;28;20075;-86
2022/12/25 02:21:10;;;;;;;79.03;20.48;;;6.80;96.90;;;;;;5052750;28;20068;-84
2022/12/25 02:24:04;;;;;;;73.70;21.08;;;6.80;96.90;;;;;;5051501;28;20052;-85
2022/12/25 02:26:50;;;;;;;72.95;21.05;;;6.90;96.90;;;;;;5054052;28;20083;-83
2022/12/25 02:29:45;;;;;;;69.82;20.60;;;6.90;96.90;;;;;;5051796;28;20079;-84
2022/12/25 02:32:31;;;;;;;67.03;21.27;;;7.00;96.90;;;;;;5055808;28;20048;-84
2022/12/25 02:35:02;;;;;;;74.65;20.08;;;7.00;96.80;;;;;;5052216;28;20090;-82
2022/12/25 02:37:41;;;;;;;87.07;21.33;;;7.00;96.90;;;;;;5055145;28;20075;-82
2022/12/25 02:40:17;;;;;;;69.05;20.70;;;7.00;96.80;;;;;;5033354;28;20044;-83
2022/12/25 03:08:36;;;;;;;67.32;19.15;;;7.10;96.50;;;;;;5054182;28;20106;-81
2022/12/25 03:13:52;;;;;;;82.63;20.77;;;7.10;96.40;;;;;;5055203;28;20131;-80
2022/12/25 03:26:53;;;;;;;65.20;20.17;;;7.20;96.50;;;;;;5063572;28;20146;-83
2022/12/25 03:27:29;;;;;;;66.47;18.77;;;7.20;96.50;;;;;;5041898;28;20041;-81
2022/12/25 03:32:57;;;;;;;63.40;19.85;;;7.20;96.60;;;;;;5059097;28;20491;-81
2022/12/25 03:36:09;;;;;;;68.47;19.17;;;7.20;96.60;;;;;;5055978;28;20044;-81
2022/12/25 04:37:47;;;;;;;68.47;20.90;;;7.60;96.40;;;;;;5062859;28;21563;-81
2022/12/25 04:40:13;;;;;;;66.43;20.38;;;7.60;96.40;;;;;;5060571;28;20041;-82
2022/12/25 04:42:39;;;;;;;67.90;21.73;;;7.60;96.40;;;;;;5063659;28;20048;-81
2022/12/25 04:45:05;;;;;;;76.72;22.42;;;7.70;96.30;;;;;;5065695;28;20044;-82
2022/12/25 04:47:31;;;;;;;74.95;21.27;;;7.70;96.40;;;;;;5068539;28;20411;-81
2022/12/25 04:49:57;;;;;;;93.95;23.80;;;7.70;96.30;;;;;;5059649;28;20052;-80
2022/12/25 04:52:22;;;;;;;93.15;23.75;;;7.70;96.40;;;;;;5039675;28;20033;-82
2022/12/25 04:54:48;;;;;;;96.63;24.33;;;7.70;96.40;;;;;;5058593;28;20043;-82
2022/12/25 04:57:14;;;;;;;93.05;24.42;;;7.70;96.40;;;;;;5051715;28;20140;-81
2022/12/25 04:59:39;;;;;;;86.32;24.38;;;7.70;96.40;;;;;;5054327;28;20036;-81
2022/12/25 05:02:05;;;;;;;92.65;23.23;;;7.70;96.40;;;;;;5055629;28;20056;-81
2022/12/25 05:04:30;;;;;;;95.15;24.98;;;7.70;96.50;;;;;;5036319;28;20079;-81
2022/12/25 05:06:56;;;;;;;99.70;24.90;;;7.70;96.50;;;;;;5056508;28;20487;-81
2022/12/25 05:09:22;;;;;;;103.47;26.10;;;7.70;96.50;;;;;;5051517;28;20118;-82
2022/12/25 05:11:47;;;;;;;101.55;25.13;;;7.70;96.90;;;;;;5055663;28;20060;-82
2022/12/25 05:14:13;;;;;;;101.03;27.25;;;7.70;96.60;;;;;;5058416;28;20039;-82
2022/12/25 05:16:39;;;;;;;121.78;28.48;;;7.80;96.60;;;;;;5054654;28;20063;-81
2022/12/25 05:19:04;;;;;;;120.13;27.80;;;7.80;96.60;;;;;;5053270;28;20122;-81
2022/12/25 05:21:30;;;;;;;102.57;26.20;;;7.80;96.60;;;;;;5056293;28;20083;-81
2022/12/25 05:23:56;;;;;;;109.13;26.92;;;7.80;96.60;;;;;;5036909;28;20507;-81
2022/12/25 05:26:24;;;;;;;102.90;25.83;;;7.90;96.60;;;;;;5042427;28;20048;-81
2022/12/25 05:28:50;;;;;;;100.70;27.35;;;7.90;96.70;;;;;;5054358;28;20083;-81
2022/12/25 05:31:16;;;;;;;113.15;27.38;;;7.90;96.70;;;;;;5054363;28;20495;-82
2022/12/25 05:33:42;;;;;;;110.28;27.05;;;7.90;96.70;;;;;;5053354;28;20080;-81
2022/12/25 05:36:10;;;;;;;104.22;25.95;;;7.90;96.60;;;;;;5052780;28;20756;-81
2022/12/25 05:38:36;;;;;;;111.03;28.02;;;7.90;96.70;;;;;;5057415;28;20052;-80
2022/12/25 05:41:02;;;;;;;113.57;28.40;;;7.90;96.60;;;;;;5055443;28;20049;-81
2022/12/25 05:43:28;;;;;;;111.28;27.17;;;7.90;96.70;;;;;;5051639;28;20052;-82
2022/12/25 05:45:54;;;;;;;135.63;30.30;;;7.90;96.60;;;;;;5054902;28;20099;-81
2022/12/25 05:48:20;;;;;;;138.70;30.52;;;7.90;96.60;;;;;;5054813;28;20504;-84
2022/12/25 05:50:45;;;;;;;161.82;31.55;;;7.90;96.70;;;;;;5052123;28;20742;-86
2022/12/25 05:53:13;;;;;;;128.65;29.52;;;7.90;96.70;;;;;;5053620;28;20075;-84
2022/12/25 05:55:42;;;;;;;146.73;30.87;;;7.90;96.80;;;;;;5056156;28;20494;-84
2022/12/25 05:58:08;;;;;;;135.35;30.27;;;7.90;96.80;;;;;;5051043;28;20040;-84
2022/12/25 06:00:35;;;;;;;160.45;30.63;;;8.10;96.80;;;;;;5051882;28;20409;-83
2022/12/25 06:03:01;;;;;;;131.98;29.92;;;8.00;96.80;;;;;;5052560;28;20025;-85
2022/12/25 06:05:27;;;;;;;138.15;30.98;;;7.90;96.90;;;;;;5037030;28;20174;-82
2022/12/25 06:07:52;;;;;;;141.63;29.77;;;8.00;96.90;;;;;;5054118;28;20171;-83
2022/12/25 06:10:18;;;;;;;136.90;30.67;;;8.00;96.90;;;;;;5039696;28;20377;-81
2022/12/25 06:12:44;;;;;;;151.25;30.50;;;7.90;96.90;;;;;;5052717;28;20507;-85
2022/12/25 06:15:09;;;;;;;133.82;29.52;;;8.00;96.90;;;;;;5036218;28;20055;-84
2022/12/25 06:17:35;;;;;;;108.72;28.80;;;8.00;96.90;;;;;;5054650;28;20044;-85
2022/12/25 06:20:01;;;;;;;154.13;30.75;;;8.00;96.90;;;;;;5051323;28;20048;-83
2022/12/25 06:22:31;;;;;;;142.07;29.08;;;8.00;96.90;;;;;;5055202;28;20059;-82
2022/12/25 06:24:56;;;;;;;112.70;27.60;;;8.00;96.90;;;;;;5051597;28;20693;-81
2022/12/25 06:27:22;;;;;;;122.57;29.00;;;8.00;96.90;;;;;;5055085;28;20047;-84
2022/12/25 06:29:47;;;;;;;121.07;28.52;;;8.00;96.90;;;;;;5033470;28;20515;-85
2022/12/25 06:32:13;;;;;;;122.88;29.13;;;8.00;96.90;;;;;;5053369;28;20032;-85
2022/12/25 06:34:39;;;;;;;127.57;30.17;;;8.00;96.90;;;;;;5053300;28;20079;-85
2022/12/25 06:37:04;;;;;;;145.32;30.45;;;8.00;96.90;;;;;;5055699;28;20040;-85
2022/12/25 06:39:30;;;;;;;155.18;30.75;;;8.00;96.90;;;;;;5052859;28;20099;-83
2022/12/25 06:41:56;;;;;;;150.93;30.98;;;8.00;96.90;;;;;;5054714;28;20123;-85
2022/12/25 06:44:22;;;;;;;124.65;29.27;;;8.00;96.90;;;;;;5048396;28;21005;-85
2022/12/25 06:46:48;;;;;;;135.27;30.17;;;8.10;97.00;;;;;;5035824;28;20046;-85
2022/12/25 06:49:13;;;;;;;144.32;30.92;;;8.00;96.90;;;;;;5037684;28;20708;-84
2022/12/25 06:51:39;;;;;;;147.85;31.50;;;8.10;97.00;;;;;;5053600;28;20048;-85
2022/12/25 06:54:04;;;;;;;130.80;31.08;;;8.10;97.00;;;;;;5052219;28;20403;-84
2022/12/25 06:56:31;;;;;;;106.03;28.92;;;8.10;97.00;;;;;;5036244;28;20076;-84
2022/12/25 06:59:00;;;;;;;123.57;31.02;;;8.10;97.00;;;;;;5052167;28;20476;-82
2022/12/25 07:01:36;;;;;;;127.60;30.48;;;8.10;97.00;;;;;;5055029;28;20059;-81
2022/12/25 07:04:06;;;;;;;103.55;27.88;;;8.20;97.00;;;;;;5054798;28;20174;-82
2022/12/25 07:06:32;;;;;;;119.32;29.33;;;8.20;97.00;;;;;;5056323;28;20037;-82
2022/12/25 07:08:58;;;;;;;97.90;28.58;;;8.20;97.00;;;;;;5054014;28;20037;-82
2022/12/25 07:11:24;;;;;;;115.80;28.30;;;8.10;97.00;;;;;;5038399;28;20400;-81
2022/12/25 07:13:50;;;;;;;99.20;28.90;;;8.20;96.90;;;;;;5049205;28;20167;-83
2022/12/25 07:16:15;;;;;;;94.00;27.52;;;8.30;97.00;;;;;;5032709;28;20047;-83
2022/12/25 07:18:41;;;;;;;89.25;26.00;;;8.30;97.00;;;;;;5054899;28;20049;-81
2022/12/25 07:21:13;;;;;;;91.07;26.75;;;8.30;96.90;;;;;;5049878;28;20066;-81
2022/12/25 07:23:39;;;;;;;90.68;27.13;;;8.30;96.80;;;;;;5054724;28;20052;-82
2022/12/25 07:26:05;;;;;;;95.18;26.88;;;8.30;96.80;;;;;;5054694;28;20083;-81
2022/12/25 07:28:31;;;;;;;84.03;25.55;;;8.30;96.80;;;;;;5049945;28;20621;-82
2022/12/25 07:31:10;;;;;;;91.97;26.38;;;8.30;96.80;;;;;;5057260;28;20040;-81
2022/12/25 07:33:35;;;;;;;89.45;26.08;;;8.30;96.80;;;;;;5049259;28;20040;-81
2022/12/25 07:36:02;;;;;;;75.78;25.52;;;8.30;96.80;;;;;;5039957;28;20047;-80
2022/12/25 07:38:28;;;;;;;70.72;24.65;;;8.30;96.80;;;;;;5035175;28;20037;-81
2022/12/25 07:40:53;;;;;;;83.00;26.20;;;8.30;96.80;;;;;;5037495;28;20086;-80
2022/12/25 07:43:19;;;;;;;84.40;24.92;;;8.30;96.70;;;;;;5053876;28;20036;-82
2022/12/25 07:45:45;;;;;;;62.88;23.33;;;8.30;96.70;;;;;;5055855;28;20048;-81
2022/12/25 07:48:11;;;;;;;73.15;22.85;;;8.40;96.70;;;;;;5050553;28;20500;-81
2022/12/25 07:50:36;;;;;;;70.18;23.58;;;8.40;96.70;;;;;;5031750;28;20043;-81
2022/12/25 07:53:02;;;;;;;62.85;21.25;;;8.40;96.70;;;;;;5035467;28;20053;-81
2022/12/25 07:55:28;;;;;;;50.15;20.73;;;8.40;96.70;;;;;;5056570;28;20584;-81
2022/12/25 07:57:53;;;;;;;54.30;21.10;;;8.40;96.60;;;;;;5054494;28;20040;-81
2022/12/25 08:00:19;;;;;;;59.25;20.02;;;8.40;96.60;;;;;;5054018;28;20043;-81
2022/12/25 08:02:48;;;;;;;46.65;18.88;;;8.40;96.50;;;;;;5064547;28;20219;-82
2022/12/25 08:05:14;;;;;;;42.83;17.92;;;8.50;96.50;;;;;;5060461;28;20044;-83
2022/12/25 08:07:40;;;;;;;40.78;17.48;;;8.50;96.40;;;;;;5053614;28;20127;-80
2022/12/25 08:10:06;;;;;;;46.40;18.83;;;8.50;96.30;;;;;;5065964;28;20036;-81
2022/12/25 08:12:32;;;;;;;41.33;16.90;;;8.50;96.20;;;;;;5064323;28;20479;-81
2022/12/25 08:14:57;;;;;;;35.03;16.60;;;8.60;96.20;;;;;;5064374;28;20059;-81
2022/12/25 08:17:23;;;;;;;35.90;16.25;;;8.60;96.00;;;;;;5064387;28;20041;-81
2022/12/25 08:19:48;;;;;;;38.15;16.45;;;8.60;95.90;;;;;;5074161;28;20123;-83
2022/12/25 08:22:14;;;;;;;41.22;15.13;;;8.70;95.80;;;;;;5075185;28;20044;-82
2022/12/25 08:24:39;;;;;;;32.72;15.43;;;8.60;95.70;;;;;;5077766;28;20087;-81
2022/12/25 08:27:05;;;;;;;33.53;16.00;;;8.60;95.60;;;;;;5066506;28;20112;-81
2022/12/25 08:29:32;;;;;;;30.58;14.63;;;8.60;95.50;;;;;;5065372;28;20106;-81
2022/12/25 08:31:58;;;;;;;30.63;14.77;;;8.60;95.60;;;;;;5070546;28;20044;-82
2022/12/25 08:34:24;;;;;;;36.10;13.52;;;8.60;95.60;;;;;;5058223;28;20122;-81
2022/12/25 08:36:50;;;;;;;29.77;13.32;;;8.60;95.50;;;;;;5087264;28;20066;-81
2022/12/25 08:39:16;;;;;;;34.38;14.18;;;8.60;95.80;;;;;;5062420;28;20512;-82
2022/12/25 08:41:41;;;;;;;38.30;13.63;;;8.60;95.50;;;;;;5060712;28;20084;-82
2022/12/25 08:44:07;;;;;;;25.33;13.52;;;8.70;95.50;;;;;;5055149;28;20464;-82
2022/12/25 08:46:33;;;;;;;31.67;13.18;;;8.60;95.40;;;;;;5058555;28;20052;-82
2022/12/25 08:48:58;;;;;;;28.67;13.40;;;8.60;95.40;;;;;;5057329;28;20041;-83
2022/12/25 08:51:25;;;;;;;28.20;13.27;;;8.60;95.30;;;;;;5040797;28;20036;-81
2022/12/25 08:53:52;;;;;;;36.17;13.65;;;8.60;95.30;;;;;;5054670;28;20040;-82
2022/12/25 08:56:18;;;;;;;25.50;12.60;;;8.60;95.30;;;;;;5037870;28;20514;-82
2022/12/25 08:58:44;;;;;;;28.52;12.15;;;8.60;95.30;;;;;;5060726;28;20091;-82
2022/12/25 09:01:11;;;;;;;25.13;11.90;;;8.60;95.30;;;;;;5075144;28;20420;-82
2022/12/25 09:03:37;;;;;;;27.42;11.80;;;8.60;95.20;;;;;;5058675;28;20177;-82
2022/12/25 09:06:05;;;;;;;28.20;12.15;;;8.60;95.20;;;;;;5059839;28;20577;-83
2022/12/25 09:08:31;;;;;;;28.27;11.98;;;8.60;95.10;;;;;;5059394;28;20127;-82
2022/12/25 09:11:01;;;;;;;21.90;11.38;;;8.60;95.10;;;;;;5056474;28;20127;-81
2022/12/25 09:13:27;;;;;;;25.48;11.82;;;8.60;95.00;;;;;;5055692;28;20116;-83
2022/12/25 09:15:52;;;;;;;24.48;11.27;;;8.60;95.10;;;;;;5043609;28;20603;-83
2022/12/25 09:18:18;;;;;;;25.92;11.20;;;8.60;95.00;;;;;;5041597;28;20044;-81
2022/12/25 09:20:43;;;;;;;27.50;10.40;;;8.60;95.00;;;;;;5043509;28;20091;-82
2022/12/25 09:23:09;;;;;;;28.35;10.73;;;8.60;95.00;;;;;;5059181;28;20074;-82
2022/12/25 09:25:35;;;;;;;20.08;9.68;;;8.60;95.00;;;;;;5059020;28;20075;-83
2022/12/25 09:28:00;;;;;;;21.30;10.40;;;8.70;95.00;;;;;;5058621;28;20404;-82
2022/12/25 09:30:26;;;;;;;25.25;9.70;;;8.60;95.00;;;;;;5059964;28;20357;-81
2022/12/25 09:32:51;;;;;;;19.17;9.93;;;8.70;95.00;;;;;;5061125;28;20045;-84
2022/12/25 09:35:17;;;;;;;25.58;9.40;;;8.70;94.90;;;;;;5057638;28;20075;-82
2022/12/25 09:37:43;;;;;;;23.25;9.82;;;8.70;95.00;;;;;;5055293;28;20527;-83
2022/12/25 09:40:16;;;;;;;21.90;9.05;;;8.70;94.90;;;;;;5040657;28;20052;-82
2022/12/25 09:42:43;;;;;;;16.92;8.57;;;8.70;94.80;;;;;;5042234;28;20056;-83
2022/12/25 09:45:21;;;;;;;23.70;9.20;;;8.70;94.80;;;;;;5042370;28;20589;-83
2022/12/25 09:47:48;;;;;;;21.20;9.13;;;8.70;94.70;;;;;;5053278;28;20021;-83
2022/12/25 09:50:18;;;;;;;22.35;9.75;;;8.70;94.70;;;;;;5054347;28;20059;-84
2022/12/25 09:52:56;;;;;;;23.52;9.02;;;8.70;94.70;;;;;;5052812;28;20048;-84
2022/12/25 09:55:27;;;;;;;24.20;9.43;;;8.70;94.60;;;;;;5056288;28;20044;-82
2022/12/25 09:57:55;;;;;;;27.70;9.52;;;8.70;94.60;;;;;;5056965;28;20045;-82
2022/12/25 10:00:27;;;;;;;21.63;8.40;;;8.80;94.60;;;;;;5057105;28;20048;-82
2022/12/25 10:03:04;;;;;;;20.30;8.63;;;8.80;94.50;;;;;;5057912;28;20090;-81
2022/12/25 10:05:48;;;;;;;19.77;8.85;;;8.80;94.50;;;;;;5057138;28;20123;-81
2022/12/25 10:08:38;;;;;;;20.95;8.52;;;8.80;94.50;;;;;;5042669;28;20040;-82
2022/12/25 10:11:31;;;;;;;19.83;7.88;;;8.80;94.40;;;;;;5058051;28;20045;-82
2022/12/25 10:14:24;;;;;;;19.70;8.45;;;8.80;94.40;;;;;;5030544;28;20437;-82
2022/12/25 10:17:25;;;;;;;22.55;8.20;;;8.80;94.40;;;;;;5052309;28;20556;-82
2022/12/25 10:20:07;;;;;;;20.15;8.77;;;8.90;94.30;;;;;;5057123;28;20534;-82
2022/12/25 10:22:39;;;;;;;15.77;7.43;;;8.90;94.60;;;;;;5058504;28;20520;-82
2022/12/25 10:25:11;;;;;;;18.75;8.63;;;8.90;94.10;;;;;;5039687;28;20048;-83
2022/12/25 10:27:39;;;;;;;21.23;7.85;;;8.90;94.20;;;;;;5058139;28;20037;-82
2022/12/25 10:30:20;;;;;;;18.27;7.80;;;8.90;94.20;;;;;;5042960;28;20171;-82
2022/12/25 10:32:46;;;;;;;21.90;8.40;;;8.90;94.20;;;;;;5060099;28;20044;-81
2022/12/25 10:35:18;;;;;;;19.30;8.60;;;8.90;94.20;;;;;;5052033;28;20082;-83
2022/12/25 10:37:49;;;;;;;16.55;8.27;;;9.00;94.30;;;;;;5054775;28;20101;-82
2022/12/25 10:40:39;;;;;;;14.80;8.25;;;8.90;94.10;;;;;;5058041;28;20369;-82
2022/12/25 10:43:14;;;;;;;15.48;7.55;;;8.90;94.10;;;;;;5057643;28;20060;-82
2022/12/25 10:45:45;;;;;;;16.05;7.50;;;9.00;94.10;;;;;;5058501;28;20040;-83
2022/12/25 10:48:37;;;;;;;18.83;8.10;;;9.00;94.10;;;;;;5057279;28;20167;-82
2022/12/25 10:51:03;;;;;;;21.85;7.60;;;9.00;94.10;;;;;;5058609;28;20123;-82
2022/12/25 10:53:41;;;;;;;18.70;7.60;;;9.00;94.10;;;;;;5065502;28;20500;-83
2022/12/25 10:56:15;;;;;;;18.30;7.22;;;9.00;94.10;;;;;;5053371;28;20064;-81
2022/12/25 10:58:41;;;;;;;17.67;7.78;;;9.00;94.10;;;;;;5054965;28;20040;-82
2022/12/25 11:01:07;;;;;;;19.45;8.00;;;9.00;94.10;;;;;;5058781;28;20041;-83
2022/12/25 11:03:36;;;;;;;16.58;7.35;;;9.10;94.10;;;;;;5039914;28;20072;-82
2022/12/25 11:06:03;;;;;;;17.63;7.53;;;9.10;93.90;;;;;;5037718;28;20032;-83
2022/12/25 11:08:32;;;;;;;16.75;6.95;;;9.10;93.90;;;;;;5061672;28;21814;-81
2022/12/25 11:10:58;;;;;;;18.30;7.18;;;9.20;93.80;;;;;;5031987;28;20036;-81
2022/12/25 11:13:26;;;;;;;14.38;7.18;;;9.20;93.80;;;;;;5056608;28;20045;-82
2022/12/25 11:16:05;;;;;;;15.52;7.18;;;9.20;93.70;;;;;;5057256;28;20075;-82
2022/12/25 11:18:34;;;;;;;20.20;7.10;;;9.20;93.70;;;;;;5064722;28;20047;-83
2022/12/25 11:21:02;;;;;;;;;;;9.30;93.70;;;;;;5056931;28;20044;-81
2022/12/25 11:23:30;;;;;;;17.70;7.05;;;9.20;93.60;;;;;;5056112;28;19924;-81
2022/12/25 11:25:56;;;;;;;11.35;7.50;;;9.20;93.70;;;;;;5069611;28;20052;-84
2022/12/25 11:28:23;;;;;;;13.63;6.72;;;9.30;93.70;;;;;;5048084;28;20033;-82
2022/12/25 11:30:55;;;;;;;17.02;7.30;;;9.30;93.70;;;;;;5060935;28;20045;-82
2022/12/25 11:33:26;;;;;;;12.82;6.32;;;9.30;93.70;;;;;;5058814;28;20567;-82
2022/12/25 11:35:54;;;;;;;15.70;7.05;;;9.40;93.60;;;;;;5045433;28;20117;-82
2022/12/25 11:38:20;;;;;;;17.27;7.03;;;9.40;93.60;;;;;;5065340;28;20453;-81
2022/12/25 11:40:52;;;;;;;10.68;6.32;;;9.40;93.50;;;;;;5060162;28;20079;-81
2022/12/25 11:43:35;;;;;;;18.17;7.25;;;9.40;93.60;;;;;;5060996;28;20045;-81
2022/12/25 11:46:22;;;;;;;15.00;6.57;;;9.40;93.60;;;;;;5057251;28;20044;-84
2022/12/25 11:48:55;;;;;;;17.08;6.85;;;9.40;93.50;;;;;;5061213;28;20036;-81
2022/12/25 11:51:25;;;;;;;17.92;6.88;;;9.40;93.50;;;;;;5044182;28;20043;-81
2022/12/25 11:53:54;;;;;;;18.15;7.28;;;9.50;93.50;;;;;;5057816;28;20071;-86
2022/12/25 11:56:25;;;;;;;;;;;9.50;93.50;;;;;;5046067;28;20529;-81
2022/12/25 11:58:58;;;;;;;16.02;6.70;;;9.50;93.30;;;;;;5060245;28;19939;-81
2022/12/25 12:01:42;;;;;;;17.35;7.05;;;9.50;93.40;;;;;;5070424;28;20369;-81
2022/12/25 12:04:30;;;;;;;16.35;6.72;;;9.50;93.40;;;;;;5042391;28;20118;-81
2022/12/25 12:07:17;;;;;;;19.80;7.55;;;9.50;93.50;;;;;;5060099;28;20071;-81
2022/12/25 12:09:54;;;;;;;16.58;7.43;;;9.50;93.40;;;;;;5059060;28;20128;-82
2022/12/25 12:12:35;;;;;;;15.05;6.93;;;9.50;93.50;;;;;;5057140;28;20412;-83
2022/12/25 12:15:50;;;;;;;12.13;7.40;;;9.50;93.60;;;;;;5046868;28;20036;-81
2022/12/25 12:18:25;;;;;;;16.65;7.47;;;9.40;93.60;;;;;;5043541;28;20055;-80
2022/12/25 12:21:01;;;;;;;18.10;7.10;;;9.40;93.70;;;;;;5061526;28;20053;-82
2022/12/25 12:23:29;;;;;;;17.90;7.05;;;9.50;93.80;;;;;;5059946;28;20052;-82
2022/12/25 12:25:56;;;;;;;17.60;7.85;;;9.50;93.80;;;;;;5063031;28;20049;-83
2022/12/25 12:28:28;;;;;;;13.80;7.45;;;9.50;93.80;;;;;;5061600;28;20041;-82
2022/12/25 12:31:00;;;;;;;17.65;7.68;;;9.50;93.90;;;;;;5062440;28;20048;-82
2022/12/25 12:33:40;;;;;;;16.55;7.88;;;9.50;93.90;;;;;;5058556;28;20063;-82
2022/12/25 12:36:11;;;;;;;16.95;7.80;;;9.50;93.90;;;;;;5060781;28;20071;-82
2022/12/25 12:38:39;;;;;;;16.92;8.13;;;9.50;93.90;;;;;;5059641;28;20044;-84
2022/12/25 12:41:07;;;;;;;16.63;8.93;;;9.50;93.90;;;;;;5063958;28;20033;-83
2022/12/25 12:43:40;;;;;;;20.52;10.68;;;9.50;93.90;;;;;;5043013;28;20041;-81
2022/12/25 12:46:22;;;;;;;18.23;11.15;;;9.50;93.80;;;;;;5060147;28;20029;-81
2022/12/25 12:48:49;;;;;;;19.27;11.65;;;9.50;93.80;;;;;;5057197;28;20044;-86
2022/12/25 12:51:33;;;;;;;23.30;11.77;;;9.50;93.90;;;;;;5057748;28;20051;-82
2022/12/25 12:54:17;;;;;;;21.42;11.15;;;9.50;93.90;;;;;;5059382;28;20044;-83
2022/12/25 12:56:57;;;;;;;22.23;12.73;;;9.50;93.90;;;;;;5061415;28;20500;-81
2022/12/25 12:59:24;;;;;;;27.90;13.30;;;9.50;93.90;;;;;;5040232;28;20044;-82
2022/12/25 13:02:17;;;;;;;28.10;12.68;;;9.50;93.90;;;;;;5061622;28;20511;-86
2022/12/25 13:04:51;;;;;;;25.83;14.40;;;9.50;93.90;;;;;;5058860;28;20309;-81
2022/12/25 13:07:31;;;;;;;24.02;14.23;;;9.50;93.90;;;;;;5058334;28;20079;-81
2022/12/25 13:10:15;;;;;;;28.25;15.02;;;9.50;93.90;;;;;;5059912;28;20051;-82
2022/12/25 13:12:40;;;;;;;28.80;13.68;;;9.50;93.90;;;;;;5055506;28;20044;-82
2022/12/25 13:15:13;;;;;;;25.63;13.35;;;9.50;93.90;;;;;;5060247;28;20681;-80
2022/12/25 13:17:43;;;;;;;23.58;12.82;;;9.50;93.90;;;;;;5042472;28;20127;-81
2022/12/25 13:20:27;;;;;;;22.50;12.25;;;9.50;93.90;;;;;;5057809;28;20033;-80
2022/12/25 13:22:52;;;;;;;23.38;12.48;;;9.50;93.80;;;;;;5059516;28;20060;-82
2022/12/25 13:25:24;;;;;;;26.48;12.85;;;9.50;93.90;;;;;;5059238;28;20404;-81
2022/12/25 13:27:56;;;;;;;19.30;10.95;;;9.40;93.90;;;;;;5059874;28;20060;-82
2022/12/25 13:30:22;;;;;;;23.10;12.52;;;9.50;93.80;;;;;;5058854;28;20043;-83
2022/12/25 13:32:48;;;;;;;25.70;12.43;;;9.40;93.90;;;;;;5061950;28;20076;-81
2022/12/25 13:35:16;;;;;;;20.77;11.73;;;9.40;93.90;;;;;;5056293;28;20131;-82
2022/12/25 13:37:42;;;;;;;23.55;11.00;;;9.40;94.00;;;;;;5058709;28;20140;-80
2022/12/25 13:40:24;;;;;;;31.42;12.93;;;9.40;94.00;;;;;;5058090;28;20048;-82
2022/12/25 13:42:57;;;;;;;24.70;13.18;;;9.30;94.10;;;;;;5057286;28;20056;-80
2022/12/25 13:45:29;;;;;;;22.42;12.15;;;9.30;94.20;;;;;;5056276;28;20545;-82
2022/12/25 13:47:56;;;;;;;21.90;12.55;;;9.30;94.20;;;;;;5042109;28;20491;-84
2022/12/25 13:50:30;;;;;;;26.83;12.98;;;9.20;94.50;;;;;;5052062;28;20079;-83
2022/12/25 13:53:08;;;;;;;23.80;12.63;;;9.20;94.20;;;;;;5059457;28;20156;-81
2022/12/25 13:55:34;;;;;;;31.15;14.05;;;9.20;94.30;;;;;;5060234;28;20041;-80
2022/12/25 13:58:04;;;;;;;26.42;12.88;;;9.20;94.30;;;;;;5058658;28;20098;-82
2022/12/25 14:00:45;;;;;;;26.08;13.18;;;9.10;94.30;;;;;;5058754;28;20074;-83
2022/12/25 14:03:42;;;;;;;26.23;13.52;;;9.20;94.30;;;;;;5058248;28;20477;-88
2022/12/25 14:06:32;;;;;;;26.00;13.85;;;9.10;94.40;;;;;;5054995;28;20103;-84
2022/12/25 14:08:58;;;;;;;28.88;14.68;;;9.10;94.40;;;;;;5061278;28;20064;-82
2022/12/25 14:11:27;;;;;;;28.45;14.43;;;9.10;94.40;;;;;;5059009;28;20052;-83
2022/12/25 14:14:06;;;;;;;30.38;15.68;;;9.10;94.40;;;;;;5056503;28;21554;-81
2022/12/25 14:16:32;;;;;;;22.92;14.77;;;9.00;94.40;;;;;;5060423;28;20517;-81
2022/12/25 14:19:00;;;;;;;28.23;15.43;;;9.00;94.50;;;;;;5057957;28;20041;-82
2022/12/25 14:21:31;;;;;;;33.53;15.98;;;9.00;94.50;;;;;;5058334;28;20053;-81
2022/12/25 14:23:58;;;;;;;30.23;16.27;;;9.00;94.60;;;;;;5035876;28;20102;-81
2022/12/25 14:26:30;;;;;;;34.65;18.00;;;9.10;94.70;;;;;;5058785;28;20040;-81
2022/12/25 14:29:09;;;;;;;36.63;16.98;;;9.00;94.70;;;;;;5057905;28;20610;-82
2022/12/25 14:31:37;;;;;;;37.78;18.23;;;9.00;94.70;;;;;;5058974;28;20165;-82
2022/12/25 14:34:06;;;;;;;34.90;17.88;;;9.00;94.70;;;;;;5058183;28;20040;-81
2022/12/25 14:36:33;;;;;;;32.85;17.80;;;9.00;94.80;;;;;;5056376;28;20575;-81